Time;durP1;ratioP1;P1;durP2;ratioP2;P2;SDS_P1;SDS_P2;PMS_P1;PMS_P2;Temp;Humidity;BMP_temperature;BMP_pressure;BME280_temperature;BME280_humidity;BME280_pressure;Samples;Min_cycle;Max_cycle;Signal;HPM_P1;HPM_P2
2023/03/03 00:00:10;;;;;;;;;;;;;;;4.97;52.06;97410.81;5043103;28;20267;-75
2023/03/03 00:02:36;;;;;;;;;;;;;;;4.98;51.08;97404.63;5036712;28;19952;-75
2023/03/03 00:05:01;;;;;;;;;;;;;;;4.97;51.48;97403.06;5037566;28;20388;-75
2023/03/03 00:07:26;;;;;;;;;;;;;;;4.95;51.77;97415.38;5032376;28;19962;-75
2023/03/03 00:09:51;;;;;;;;;;;;;;;4.96;51.75;97409.22;5028140;28;19923;-75
2023/03/03 00:12:20;;;;;;;;;;;;;;;5.00;50.87;97410.41;5044523;28;19912;-75
2023/03/03 00:14:45;;;;;;;;;;;;;;;5.07;51.27;97400.84;5045507;28;19913;-75
2023/03/03 00:17:26;;;;;;;;;;;;;;;5.10;50.32;97404.81;5045043;28;19923;-75
2023/03/03 00:19:52;;;;;;;;;;;;;;;5.16;50.18;97403.22;5043522;28;19939;-75
2023/03/03 00:22:31;;;;;;;;;;;;;;;5.15;49.16;97401.63;5043996;28;19917;-75
2023/03/03 00:25:00;;;;;;;;;;;;;;;5.17;48.07;97400.41;5044109;28;19917;-75
2023/03/03 00:27:29;;;;;;;;;;;;;;;5.21;47.49;97399.03;5027804;28;20355;-75
2023/03/03 00:29:55;;;;;;;;;;;;;;;5.38;46.90;97407.09;5049619;28;19916;-74
2023/03/03 00:32:25;;;;;;;;;;;;;;;5.37;47.56;97405.50;5052680;28;20438;-75
2023/03/03 00:34:51;;;;;;;;;;;;;;;5.32;48.66;97413.06;5060101;28;19994;-75
2023/03/03 00:37:19;;;;;;;;;;;;;;;5.31;47.36;97405.53;5042655;28;20372;-74
2023/03/03 00:39:45;;;;;;;;;;;;;;;5.31;47.27;97413.28;5044153;28;19920;-75
2023/03/03 00:42:13;;;;;;;;;;;;;;;5.36;47.58;97414.25;5044587;28;20371;-75
2023/03/03 00:44:40;;;;;;;;;;;;;;;5.34;48.64;97413.66;5045710;28;19917;-75
2023/03/03 00:47:21;;;;;;;;;;;;;;;5.28;47.54;97414.50;5027249;28;19920;-74
2023/03/03 00:49:46;;;;;;;;;;;;;;;5.27;47.41;97417.28;5027591;28;19913;-75
2023/03/03 00:52:17;;;;;;;;;;;;;;;5.24;48.17;97411.53;5024046;28;20407;-75
2023/03/03 00:54:42;;;;;;;;;;;;;;;5.22;48.39;97418.66;5043240;28;19912;-75
2023/03/03 00:57:08;;;;;;;;;;;;;;;5.15;47.64;97419.69;5042972;28;19970;-75
2023/03/03 00:59:33;;;;;;;;;;;;;;;5.20;48.04;97417.28;5043929;28;20407;-75
2023/03/03 01:01:59;;;;;;;;;;;;;;;5.14;48.42;97410.34;5044712;28;19943;-75
2023/03/03 01:04:24;;;;;;;;;;;;;;;5.10;48.65;97416.94;5035695;28;19955;-75
2023/03/03 01:06:50;;;;;;;;;;;;;;;4.97;47.70;97420.31;5037987;28;20380;-75
2023/03/03 01:09:16;;;;;;;;;;;;;;;4.97;49.08;97426.28;5024666;28;19921;-75
2023/03/03 01:11:41;;;;;;;;;;;;;;;4.92;49.36;97422.72;5042610;28;20011;-75
2023/03/03 01:14:07;;;;;;;;;;;;;;;4.84;49.54;97416.78;5021306;28;20003;-75
2023/03/03 01:16:32;;;;;;;;;;;;;;;4.79;49.08;97421.75;5024745;28;19955;-75
2023/03/03 01:18:57;;;;;;;;;;;;;;;4.81;49.30;97418.97;5048831;28;20110;-75
2023/03/03 01:21:23;;;;;;;;;;;;;;;4.78;49.71;97414.19;5046612;28;20529;-75
2023/03/03 01:23:48;;;;;;;;;;;;;;;4.79;49.18;97415.81;5029191;28;19913;-75
2023/03/03 01:26:13;;;;;;;;;;;;;;;4.77;47.92;97407.47;5040920;28;19927;-75
2023/03/03 01:28:38;;;;;;;;;;;;;;;4.83;48.11;97414.41;5048810;28;19912;-75
2023/03/03 01:31:04;;;;;;;;;;;;;;;4.86;47.21;97416.56;5045514;28;19928;-75
2023/03/03 01:33:30;;;;;;;;;;;;;;;4.85;47.21;97420.16;5044334;28;20027;-75
2023/03/03 01:35:55;;;;;;;;;;;;;;;4.84;47.67;97426.31;5048678;28;19912;-75
2023/03/03 01:38:21;;;;;;;;;;;;;;;4.81;48.27;97421.56;5045248;28;19919;-75
2023/03/03 01:40:54;;;;;;;;;;;;;;;4.82;48.09;97423.16;5048146;28;19923;-75
2023/03/03 01:43:19;;;;;;;;;;;;;;;4.77;48.60;97416.00;5026647;28;20131;-75
2023/03/03 01:45:47;;;;;;;;;;;;;;;4.79;47.56;97420.97;5033339;28;19916;-75
2023/03/03 01:48:17;;;;;;;;;;;;;;;4.85;47.69;97420.97;5050196;28;20001;-75
2023/03/03 01:50:56;;;;;;;;;;;;;;;4.79;48.49;97419.16;5030285;28;19913;-75
2023/03/03 01:53:22;;;;;;;;;;;;;;;4.77;47.86;97417.78;5032911;28;20454;-75
2023/03/03 01:55:48;;;;;;;;;;;;;;;4.83;47.58;97414.41;5048159;28;20296;-75
2023/03/03 01:58:35;;;;;;;;;;;;;;;4.82;48.01;97412.81;5032322;28;19917;-75
2023/03/03 02:01:05;;;;;;;;;;;;;;;4.83;48.34;97409.25;5046741;28;20303;-75
2023/03/03 02:03:30;;;;;;;;;;;;;;;4.82;48.10;97407.66;5020076;22;19947;-79
2023/03/03 02:05:56;;;;;;;;;;;;;;;4.78;48.30;97409.03;5013245;28;19917;-79
2023/03/03 02:08:23;;;;;;;;;;;;;;;4.75;48.17;97409.47;5026701;28;19921;-79
2023/03/03 02:10:48;;;;;;;;;;;;;;;4.76;48.44;97406.66;4992319;28;19913;-78
2023/03/03 02:13:14;;;;;;;;;;;;;;;4.76;48.37;97398.13;5013312;28;19917;-79
2023/03/03 02:15:39;;;;;;;;;;;;;;;4.73;48.12;97403.69;5019367;28;19918;-78
2023/03/03 02:18:09;;;;;;;;;;;;;;;4.74;47.30;97405.28;5007476;28;19913;-79
2023/03/03 02:20:52;;;;;;;;;;;;;;;4.69;47.72;97396.38;5026296;28;19917;-79
2023/03/03 02:23:22;;;;;;;;;;;;;;;4.67;48.32;97394.97;5026411;28;19913;-78
2023/03/03 02:25:51;;;;;;;;;;;;;;;4.64;47.79;97393.63;5014932;28;20361;-79
2023/03/03 02:28:16;;;;;;;;;;;;;;;4.61;48.14;97396.59;5008722;28;19913;-79
2023/03/03 02:30:41;;;;;;;;;;;;;;;4.50;49.14;97404.91;5010438;28;19913;-79
2023/03/03 02:33:06;;;;;;;;;;;;;;;4.49;48.75;97398.19;5016362;28;20394;-79
2023/03/03 02:35:33;;;;;;;;;;;;;;;4.45;48.95;97407.28;4996356;28;19921;-79
2023/03/03 02:38:01;;;;;;;;;;;;;;;4.31;49.39;97409.88;4994048;28;20411;-79
2023/03/03 02:40:26;;;;;;;;;;;;;;;4.12;50.04;97403.72;5006001;28;19913;-79
2023/03/03 02:42:52;;;;;;;;;;;;;;;4.00;50.80;97401.94;5023382;28;19913;-79
2023/03/03 02:45:17;;;;;;;;;;;;;;;3.91;51.76;97394.38;5004751;28;19924;-79
2023/03/03 02:47:47;;;;;;;;;;;;;;;3.92;51.14;97392.59;5013497;28;20291;-78
2023/03/03 02:50:13;;;;;;;;;;;;;;;3.75;50.47;97399.88;5012395;28;20019;-79
2023/03/03 02:52:38;;;;;;;;;;;;;;;3.66;51.11;97396.69;5016271;28;19961;-79
2023/03/03 02:55:03;;;;;;;;;;;;;;;3.67;50.25;97395.72;5010133;28;19916;-79
2023/03/03 02:57:29;;;;;;;;;;;;;;;3.65;49.67;97395.13;5027174;28;19917;-79
2023/03/03 02:59:54;;;;;;;;;;;;;;;3.64;50.17;97398.69;5022843;28;19913;-79
2023/03/03 03:02:19;;;;;;;;;;;;;;;3.69;50.06;97398.88;5005039;28;19932;-79
2023/03/03 03:04:44;;;;;;;;;;;;;;;3.67;50.18;97403.44;4993069;28;20402;-79
2023/03/03 03:07:10;;;;;;;;;;;;;;;3.64;50.37;97401.25;4988436;28;19921;-79
2023/03/03 03:10:01;;;;;;;;;;;;;;;3.67;50.66;97400.09;4996530;28;19936;-78
2023/03/03 03:12:26;;;;;;;;;;;;;;;3.69;51.00;97398.09;5009650;28;19914;-79
2023/03/03 03:14:51;;;;;;;;;;;;;;;3.70;51.19;97405.66;5008967;28;19920;-77
2023/03/03 03:17:16;;;;;;;;;;;;;;;3.72;50.76;97403.66;4991197;28;19914;-81
2023/03/03 03:19:42;;;;;;;;;;;;;;;3.80;51.08;97394.16;4993339;28;20413;-81
2023/03/03 03:22:07;;;;;;;;;;;;;;;3.84;49.98;97393.59;5002910;28;19920;-81
2023/03/03 03:24:32;;;;;;;;;;;;;;;3.89;50.42;97404.09;4989888;28;19971;-81
2023/03/03 03:26:57;;;;;;;;;;;;;;;3.94;49.93;97406.06;4994758;28;20030;-78
2023/03/03 03:29:23;;;;;;;;;;;;;;;3.94;50.66;97406.88;5007566;28;19918;-81
2023/03/03 03:31:48;;;;;;;;;;;;;;;4.00;50.21;97401.94;4987179;28;19919;-78
2023/03/03 03:34:13;;;;;;;;;;;;;;;4.01;50.03;97401.75;5003317;28;20395;-81
2023/03/03 03:36:38;;;;;;;;;;;;;;;4.00;50.14;97402.72;4987833;28;19913;-78
2023/03/03 03:39:05;;;;;;;;;;;;;;;4.01;49.84;97408.66;5008970;28;20364;-78
2023/03/03 03:41:33;;;;;;;;;;;;;;;3.91;49.74;97402.13;5008678;28;19971;-81
2023/03/03 03:43:58;;;;;;;;;;;;;;;3.94;50.27;97408.63;4993530;28;20029;-81
2023/03/03 03:46:23;;;;;;;;;;;;;;;3.84;50.96;97400.50;4992326;28;20004;-78
2023/03/03 03:48:49;;;;;;;;;;;;;;;3.93;50.38;97405.28;4992701;28;19925;-80
2023/03/03 03:51:14;;;;;;;;;;;;;;;3.95;50.18;97407.66;4992246;28;19913;-81
2023/03/03 03:53:39;;;;;;;;;;;;;;;3.85;50.11;97408.03;5008546;28;19913;-80
2023/03/03 03:56:05;;;;;;;;;;;;;;;3.85;50.21;97408.03;4960416;28;20134;-81
2023/03/03 03:58:30;;;;;;;;;;;;;;;3.83;50.37;97404.06;4976638;28;19964;-81
2023/03/03 04:01:00;;;;;;;;;;;;;;;3.86;50.38;97403.69;4989462;28;20292;-78
2023/03/03 04:03:25;;;;;;;;;;;;;;;3.95;50.50;97399.94;5003252;28;19917;-81
2023/03/03 04:05:51;;;;;;;;;;;;;;;3.99;50.34;97397.75;4993119;28;19976;-81
2023/03/03 04:08:16;;;;;;;;;;;;;;;4.01;50.16;97398.34;4992068;28;19914;-81
2023/03/03 04:10:42;;;;;;;;;;;;;;;4.02;49.51;97397.38;4973504;28;19913;-80
2023/03/03 04:13:07;;;;;;;;;;;;;;;4.08;49.39;97402.53;5005772;28;19963;-80
2023/03/03 04:15:32;;;;;;;;;;;;;;;4.10;49.92;97410.84;4987479;28;20376;-77
2023/03/03 04:17:57;;;;;;;;;;;;;;;4.05;49.91;97402.91;4990424;28;19979;-81
2023/03/03 04:20:23;;;;;;;;;;;;;;;4.01;50.47;97411.22;4992357;28;19917;-80
2023/03/03 04:22:48;;;;;;;;;;;;;;;4.02;49.89;97410.25;4992034;28;19924;-80
2023/03/03 04:25:14;;;;;;;;;;;;;;;4.00;50.31;97410.44;4974628;28;19921;-80
2023/03/03 04:27:39;;;;;;;;;;;;;;;3.94;50.58;97416.38;4990042;28;19913;-80
2023/03/03 04:30:05;;;;;;;;;;;;;;;3.92;49.88;97419.16;4990068;28;20320;-80
2023/03/03 04:32:32;;;;;;;;;;;;;;;3.92;50.12;97408.03;5007219;28;20004;-79
2023/03/03 04:34:58;;;;;;;;;;;;;;;3.91;49.90;97414.22;4975322;28;19913;-80
2023/03/03 04:37:23;;;;;;;;;;;;;;;3.84;50.20;97403.06;4987913;28;19917;-80
2023/03/03 04:39:48;;;;;;;;;;;;;;;3.78;50.78;97403.88;4975597;28;20371;-80
2023/03/03 04:42:14;;;;;;;;;;;;;;;3.72;50.60;97406.25;4990231;28;19918;-79
2023/03/03 04:44:39;;;;;;;;;;;;;;;3.67;50.62;97405.25;5007449;28;19924;-78
2023/03/03 04:47:05;;;;;;;;;;;;;;;3.61;51.16;97395.69;4972084;28;19925;-79
2023/03/03 04:49:30;;;;;;;;;;;;;;;3.58;51.56;97411.53;5006473;28;19913;-79
2023/03/03 04:51:55;;;;;;;;;;;;;;;3.54;51.93;97411.91;5006548;28;19942;-79
2023/03/03 04:54:21;;;;;;;;;;;;;;;3.41;51.80;97419.59;4990514;28;20357;-80
2023/03/03 04:56:46;;;;;;;;;;;;;;;3.48;52.05;97422.19;4970341;28;19936;-79
2023/03/03 04:59:15;;;;;;;;;;;;;;;3.48;51.28;97420.44;5005825;28;19949;-79
2023/03/03 05:01:40;;;;;;;;;;;;;;;3.50;51.56;97426.16;5005731;28;20266;-78
2023/03/03 05:04:05;;;;;;;;;;;;;;;3.51;51.82;97416.66;5004456;28;19924;-79
2023/03/03 05:06:31;;;;;;;;;;;;;;;3.52;51.31;97428.56;5000194;28;19921;-79
2023/03/03 05:08:56;;;;;;;;;;;;;;;3.53;51.93;97428.38;5006309;28;20322;-78
2023/03/03 05:11:21;;;;;;;;;;;;;;;3.51;51.71;97426.94;5007567;28;20343;-79
2023/03/03 05:13:46;;;;;;;;;;;;;;;3.53;51.60;97428.38;5006745;28;19914;-79
2023/03/03 05:16:12;;;;;;;;;;;;;;;3.50;51.96;97425.38;5006011;28;19914;-80
2023/03/03 05:18:37;;;;;;;;;;;;;;;3.47;51.51;97429.13;4971818;28;19983;-79
2023/03/03 05:21:03;;;;;;;;;;;;;;;3.43;51.71;97438.22;5007089;28;19921;-79
2023/03/03 05:23:28;;;;;;;;;;;;;;;3.44;52.26;97434.66;4975212;28;20436;-79
2023/03/03 05:25:53;;;;;;;;;;;;;;;3.45;52.32;97438.03;4986234;28;19921;-79
2023/03/03 05:28:18;;;;;;;;;;;;;;;3.43;52.49;97439.97;4972266;28;19972;-79
2023/03/03 05:30:44;;;;;;;;;;;;;;;3.40;52.95;97440.38;5006620;28;19948;-79
2023/03/03 05:33:11;;;;;;;;;;;;;;;3.41;52.55;97441.97;4982714;28;19913;-78
2023/03/03 05:35:37;;;;;;;;;;;;;;;3.42;52.85;97446.13;4974980;28;19968;-79
2023/03/03 05:38:02;;;;;;;;;;;;;;;3.43;52.75;97445.94;4987634;28;19913;-79
2023/03/03 05:40:27;;;;;;;;;;;;;;;3.43;52.19;97445.94;4974482;28;19913;-79
2023/03/03 05:42:52;;;;;;;;;;;;;;;3.39;52.92;97444.72;5006392;28;20327;-79
2023/03/03 05:45:20;;;;;;;;;;;;;;;3.34;53.33;97447.06;4982744;28;19918;-79
2023/03/03 05:47:46;;;;;;;;;;;;;;;3.30;52.80;97451.03;4990409;28;19913;-79
2023/03/03 05:50:11;;;;;;;;;;;;;;;3.32;52.94;97449.06;5006364;28;19920;-79
2023/03/03 05:52:36;;;;;;;;;;;;;;;3.29;52.85;97454.56;5000463;28;19913;-79
2023/03/03 05:55:01;;;;;;;;;;;;;;;3.28;52.93;97458.16;4989103;28;20319;-79
2023/03/03 05:57:27;;;;;;;;;;;;;;;3.28;53.40;97463.28;4991009;28;19921;-80
2023/03/03 05:59:52;;;;;;;;;;;;;;;3.17;53.37;97468.00;5006628;28;19969;-80
2023/03/03 06:02:17;;;;;;;;;;;;;;;3.13;53.00;97471.13;4990876;28;19917;-79
2023/03/03 06:04:43;;;;;;;;;;;;;;;3.19;53.04;97476.31;4993876;28;20016;-80
2023/03/03 06:07:08;;;;;;;;;;;;;;;3.17;53.88;97483.44;4989446;28;20390;-79
2023/03/03 06:09:35;;;;;;;;;;;;;;;3.15;53.67;97492.31;4991970;28;20016;-80
2023/03/03 06:12:01;;;;;;;;;;;;;;;3.12;52.98;97496.06;4993945;28;19920;-79
2023/03/03 06:14:26;;;;;;;;;;;;;;;3.17;53.60;97492.91;5010211;28;20400;-79
2023/03/03 06:16:51;;;;;;;;;;;;;;;3.18;53.25;97495.28;5010282;28;19940;-79
2023/03/03 06:19:16;;;;;;;;;;;;;;;3.24;53.23;97487.81;4994035;28;19921;-79
2023/03/03 06:21:42;;;;;;;;;;;;;;;3.22;53.88;97498.28;5005735;28;19920;-79
2023/03/03 06:24:07;;;;;;;;;;;;;;;3.28;54.15;97491.59;4971187;28;20910;-78
2023/03/03 06:26:32;;;;;;;;;;;;;;;3.32;53.95;97498.72;4988263;28;19917;-79
2023/03/03 06:28:58;;;;;;;;;;;;;;;3.35;55.33;97495.00;4993056;28;20044;-79
2023/03/03 06:31:23;;;;;;;;;;;;;;;3.43;54.67;97502.56;4992990;28;20392;-78
2023/03/03 06:33:48;;;;;;;;;;;;;;;3.53;53.91;97495.31;5005248;28;20373;-79
2023/03/03 06:36:14;;;;;;;;;;;;;;;3.65;54.36;97495.56;4992759;28;19909;-79
2023/03/03 06:38:39;;;;;;;;;;;;;;;3.65;53.82;97497.31;5009388;28;19913;-77
2023/03/03 06:41:06;;;;;;;;;;;;;;;3.69;54.52;97495.97;5005722;28;19913;-78
2023/03/03 06:43:35;;;;;;;;;;;;;;;3.77;53.79;97493.22;5008548;28;19920;-79
2023/03/03 06:46:00;;;;;;;;;;;;;;;3.83;53.61;97489.06;4992618;28;19947;-80
2023/03/03 06:48:25;;;;;;;;;;;;;;;3.87;53.60;97498.00;5010312;28;20011;-80
2023/03/03 06:50:51;;;;;;;;;;;;;;;3.89;53.98;97504.56;4971489;28;20125;-79
2023/03/03 06:53:16;;;;;;;;;;;;;;;3.91;54.16;97499.22;4990951;28;20353;-79
2023/03/03 06:55:43;;;;;;;;;;;;;;;4.00;53.93;97507.56;4974050;28;19940;-79
2023/03/03 06:58:18;;;;;;;;;;;;;;;4.08;54.00;97509.97;4973896;28;19914;-78
2023/03/03 07:00:45;;;;;;;;;;;;;;;4.17;53.50;97511.38;5008167;28;20464;-79
2023/03/03 07:03:17;;;;;;;;;;;;;;;4.22;53.91;97513.38;4986662;28;20396;-78
2023/03/03 07:05:43;;;;;;;;;;;;;;;4.30;53.86;97513.16;4984602;28;19964;-78
2023/03/03 07:08:18;;;;;;;;;;;;;;;4.36;53.94;97516.78;4974672;28;19913;-78
2023/03/03 07:10:44;;;;;;;;;;;;;;;4.45;54.30;97520.75;5003304;28;20388;-78
2023/03/03 07:13:21;;;;;;;;;;;;;;;4.49;53.59;97524.53;4998005;28;20192;-79
2023/03/03 07:15:48;;;;;;;;;;;;;;;4.47;54.18;97529.88;4999850;28;20373;-79
2023/03/03 07:18:25;;;;;;;;;;;;;;;4.48;53.27;97533.25;4974438;28;20362;-79
2023/03/03 07:20:51;;;;;;;;;;;;;;;4.61;53.67;97528.09;5010413;28;19913;-78
2023/03/03 07:23:19;;;;;;;;;;;;;;;4.58;52.04;97536.22;5007277;28;19920;-78
2023/03/03 07:25:45;;;;;;;;;;;;;;;4.59;51.94;97535.25;5009544;28;19921;-78
2023/03/03 07:28:14;;;;;;;;;;;;;;;4.69;52.56;97535.66;4989035;28;19913;-78
2023/03/03 07:30:39;;;;;;;;;;;;;;;4.90;52.43;97538.22;4971745;28;19983;-77
2023/03/03 07:33:07;;;;;;;;;;;;;;;4.96;52.03;97543.41;4987349;28;20356;-78
2023/03/03 07:35:40;;;;;;;;;;;;;;;5.04;52.94;97542.41;4971914;28;20300;-78
2023/03/03 07:38:23;;;;;;;;;;;;;;;5.05;51.94;97543.97;4983381;28;19949;-78
2023/03/03 07:40:50;;;;;;;;;;;;;;;5.19;52.23;97552.50;5018105;28;19917;-78
2023/03/03 07:43:35;;;;;;;;;;;;;;;5.18;52.51;97551.72;5007310;28;20335;-78
2023/03/03 07:46:07;;;;;;;;;;;;;;;5.14;52.69;97550.53;4976445;28;20383;-78
2023/03/03 07:48:34;;;;;;;;;;;;;;;5.21;52.51;97551.31;4986913;28;20336;-76
2023/03/03 07:51:01;;;;;;;;;;;;;;;5.34;52.37;97553.09;4972977;28;19925;-78
2023/03/03 07:53:33;;;;;;;;;;;;;;;5.37;52.15;97554.50;5001080;28;19944;-78
2023/03/03 07:55:59;;;;;;;;;;;;;;;5.31;52.25;97552.69;5008949;28;19917;-78
2023/03/03 07:58:34;;;;;;;;;;;;;;;5.49;52.37;97557.25;5006879;28;20206;-78
2023/03/03 08:01:18;;;;;;;;;;;;;;;5.63;52.29;97564.75;4982686;28;19924;-77
2023/03/03 08:03:46;;;;;;;;;;;;;;;5.94;51.05;97567.66;4983707;28;19917;-78
2023/03/03 08:06:39;;;;;;;;;;;;;;;6.05;51.51;97569.63;5007173;28;20226;-78
2023/03/03 08:09:10;;;;;;;;;;;;;;;6.16;51.77;97566.38;5002618;28;19921;-78
2023/03/03 08:11:52;;;;;;;;;;;;;;;6.24;52.27;97559.38;4985374;28;19936;-80
2023/03/03 08:14:20;;;;;;;;;;;;;;;6.42;51.84;97572.44;5002353;28;20004;-80
2023/03/03 08:16:45;;;;;;;;;;;;;;;6.43;52.34;97568.84;5007311;28;20277;-79
2023/03/03 08:19:10;;;;;;;;;;;;;;;6.51;52.69;97566.03;4974795;28;19913;-79
2023/03/03 08:21:35;;;;;;;;;;;;;;;6.71;52.20;97565.09;4987156;28;20022;-80
2023/03/03 08:24:01;;;;;;;;;;;;;;;6.91;51.57;97570.94;4973649;28;19961;-79
2023/03/03 08:26:28;;;;;;;;;;;;;;;6.87;51.81;97566.38;4990416;28;19921;-79
2023/03/03 08:28:54;;;;;;;;;;;;;;;6.87;51.78;97567.19;4977157;28;19939;-80
2023/03/03 08:31:20;;;;;;;;;;;;;;;6.80;51.70;97563.81;4991323;28;19924;-79
2023/03/03 08:33:45;;;;;;;;;;;;;;;6.75;52.10;97567.06;4972162;28;19914;-78
2023/03/03 08:36:11;;;;;;;;;;;;;;;6.78;52.30;97571.00;4990424;28;19975;-79
2023/03/03 08:38:36;;;;;;;;;;;;;;;6.79;51.71;97569.25;4987449;28;20008;-79
2023/03/03 08:41:02;;;;;;;;;;;;;;;7.06;51.19;97572.41;5006743;28;19924;-79
2023/03/03 08:43:27;;;;;;;;;;;;;;;6.87;52.09;97574.94;4971637;28;19949;-79
2023/03/03 08:45:53;;;;;;;;;;;;;;;6.91;51.31;97573.50;4970761;28;20036;-79
2023/03/03 08:48:19;;;;;;;;;;;;;;;7.18;51.13;97575.09;4991573;28;19914;-80
2023/03/03 08:50:45;;;;;;;;;;;;;;;7.30;51.02;97583.78;4991553;28;20434;-80
2023/03/03 08:53:11;;;;;;;;;;;;;;;7.38;50.66;97575.72;5007269;28;19920;-79
2023/03/03 08:55:36;;;;;;;;;;;;;;;7.68;49.62;97575.81;4962542;28;19917;-78
2023/03/03 08:58:02;;;;;;;;;;;;;;;7.74;49.59;97583.75;4985619;28;19936;-78
2023/03/03 09:00:27;;;;;;;;;;;;;;;7.78;49.53;97582.28;4989112;28;20008;-79
2023/03/03 09:02:52;;;;;;;;;;;;;;;8.05;48.23;97588.78;5005356;28;19971;-78
2023/03/03 09:05:18;;;;;;;;;;;;;;;8.09;48.20;97585.75;4989660;28;19925;-79
2023/03/03 09:07:44;;;;;;;;;;;;;;;8.19;48.07;97592.03;4991419;28;19967;-79
2023/03/03 09:10:10;;;;;;;;;;;;;;;8.06;48.32;97592.97;4989991;28;19917;-77
2023/03/03 09:12:37;;;;;;;;;;;;;;;8.04;48.18;97597.56;4982207;28;19936;-78
2023/03/03 09:15:21;;;;;;;;;;;;;;;8.39;47.91;97601.34;4991114;28;19971;-78
2023/03/03 09:17:46;;;;;;;;;;;;;;;8.58;46.82;97600.31;4997821;28;19913;-79
2023/03/03 09:20:21;;;;;;;;;;;;;;;8.52;46.57;97590.84;4999032;28;19912;-78
2023/03/03 09:22:47;;;;;;;;;;;;;;;8.20;47.03;97593.59;5007389;28;19979;-78
2023/03/03 09:25:21;;;;;;;;;;;;;;;8.31;46.75;97599.88;4974865;28;20380;-79
2023/03/03 09:27:46;;;;;;;;;;;;;;;8.05;47.28;97593.97;4991531;28;19935;-79
2023/03/03 09:30:26;;;;;;;;;;;;;;;8.20;47.67;97592.81;4988055;28;19921;-78
2023/03/03 09:32:52;;;;;;;;;;;;;;;8.19;47.03;97601.59;5003495;28;19920;-78
2023/03/03 09:35:26;;;;;;;;;;;;;;;7.94;47.64;97599.88;4987247;28;19914;-80
2023/03/03 09:37:51;;;;;;;;;;;;;;;8.22;47.80;97595.97;5008706;28;19917;-79
2023/03/03 09:40:32;;;;;;;;;;;;;;;8.49;46.81;97606.84;4991806;28;20329;-79
2023/03/03 09:42:59;;;;;;;;;;;;;;;8.55;46.50;97616.34;5011242;28;19913;-79
2023/03/03 09:45:27;;;;;;;;;;;;;;;8.82;46.66;97610.78;4986934;28;20285;-79
2023/03/03 09:48:15;;;;;;;;;;;;;;;8.70;46.38;97610.75;5008035;28;20060;-79
2023/03/03 09:50:59;;;;;;;;;;;;;;;8.80;46.10;97605.81;4980012;28;20391;-79
2023/03/03 09:53:38;;;;;;;;;;;;;;;9.06;45.93;97616.81;4994259;28;19971;-80
2023/03/03 09:56:16;;;;;;;;;;;;;;;9.03;45.86;97616.47;4994806;28;20047;-81
2023/03/03 09:58:51;;;;;;;;;;;;;;;8.96;45.75;97621.75;4995024;28;19920;-78
2023/03/03 10:01:35;;;;;;;;;;;;;;;8.90;45.97;97612.28;4977388;28;19914;-80
2023/03/03 10:04:04;;;;;;;;;;;;;;;9.05;45.89;97615.25;5009339;28;19948;-79
2023/03/03 10:06:36;;;;;;;;;;;;;;;9.38;45.55;97617.31;5005283;28;20622;-81
2023/03/03 10:09:01;;;;;;;;;;;;;;;9.31;45.54;97624.44;4994674;28;19917;-79
2023/03/03 10:11:45;;;;;;;;;;;;;;;9.97;44.58;97618.28;4979367;28;19967;-79
2023/03/03 10:14:19;;;;;;;;;;;;;;;9.81;44.40;97620.56;5012160;28;19920;-82
2023/03/03 10:16:47;;;;;;;;;;;;;;;10.05;44.34;97618.72;4977551;28;19917;-79
2023/03/03 10:19:12;;;;;;;;;;;;;;;10.38;44.00;97612.09;5010506;28;19917;-79
2023/03/03 10:21:38;;;;;;;;;;;;;;;10.33;43.54;97614.59;4993196;28;19979;-81
2023/03/03 10:24:22;;;;;;;;;;;;;;;10.66;43.25;97618.34;4977552;28;19920;-79
2023/03/03 10:27:17;;;;;;;;;;;;;;;10.64;43.18;97626.41;5020475;28;19950;-81
2023/03/03 10:29:45;;;;;;;;;;;;;;;10.87;42.62;97619.50;4957552;28;19953;-80
2023/03/03 10:32:13;;;;;;;;;;;;;;;11.19;42.44;97627.56;4992450;28;19921;-80
2023/03/03 10:34:45;;;;;;;;;;;;;;;11.24;41.56;97626.84;4993071;28;19913;-79
2023/03/03 10:37:17;;;;;;;;;;;;;;;11.48;41.47;97630.09;5010448;28;19917;-79
2023/03/03 10:40:01;;;;;;;;;;;;;;;11.73;40.74;97634.09;4993909;28;19917;-80
2023/03/03 10:42:31;;;;;;;;;;;;;;;11.41;41.22;97627.66;5010383;28;19917;-80
2023/03/03 10:45:15;;;;;;;;;;;;;;;11.75;41.43;97632.03;5010275;28;19941;-78
2023/03/03 10:48:06;;;;;;;;;;;;;;;11.92;40.67;97624.97;5008072;28;20301;-81
2023/03/03 10:50:33;;;;;;;;;;;;;;;11.72;40.71;97630.69;4957156;28;19928;-79
2023/03/03 10:53:01;;;;;;;;;;;;;;;11.67;40.84;97633.25;4985035;28;20698;-78
2023/03/03 10:55:27;;;;;;;;;;;;;;;11.71;40.58;97628.31;5003500;28;19917;-80
2023/03/03 10:58:12;;;;;;;;;;;;;;;11.80;39.91;97632.88;5009370;28;19917;-80
2023/03/03 11:00:49;;;;;;;;;;;;;;;11.77;40.83;97633.38;4970229;28;20328;-79
2023/03/03 11:03:17;;;;;;;;;;;;;;;12.17;40.30;97629.72;4991817;28;19926;-80
2023/03/03 11:06:02;;;;;;;;;;;;;;;12.49;38.73;97630.84;4991784;28;19972;-80
2023/03/03 11:08:37;;;;;;;;;;;;;;;11.67;40.29;97641.06;5006162;28;19914;-80
2023/03/03 11:11:08;;;;;;;;;;;;;;;11.78;39.84;97632.34;5009729;28;19924;-80
2023/03/03 11:13:52;;;;;;;;;;;;;;;12.42;39.45;97631.03;5008721;28;19983;-80
2023/03/03 11:16:36;;;;;;;;;;;;;;;12.35;39.52;97620.81;5009407;28;19924;-80
2023/03/03 11:19:17;;;;;;;;;;;;;;;13.21;37.15;97615.81;4976926;28;19918;-81
2023/03/03 11:21:42;;;;;;;;;;;;;;;13.26;37.04;97619.28;4990499;28;20403;-80
2023/03/03 11:24:10;;;;;;;;;;;;;;;13.40;36.78;97619.69;5009098;28;19913;-80
2023/03/03 11:26:45;;;;;;;;;;;;;;;13.09;37.22;97621.22;5006591;28;19979;-79
2023/03/03 11:29:21;;;;;;;;;;;;;;;12.97;37.72;97618.81;4975305;28;19917;-80
2023/03/03 11:31:56;;;;;;;;;;;;;;;13.19;37.28;97617.91;4992920;28;20360;-80
2023/03/03 11:34:21;;;;;;;;;;;;;;;13.30;36.69;97617.75;4973401;28;20464;-81
2023/03/03 11:37:10;;;;;;;;;;;;;;;13.37;36.49;97614.16;5007312;28;19917;-82
2023/03/03 11:39:36;;;;;;;;;;;;;;;13.33;36.35;97616.47;4995293;28;20427;-80
2023/03/03 11:42:20;;;;;;;;;;;;;;;13.49;36.04;97612.16;4990851;28;20003;-79
2023/03/03 11:44:54;;;;;;;;;;;;;;;14.19;35.68;97614.59;5005342;28;20408;-81
2023/03/03 11:47:23;;;;;;;;;;;;;;;14.40;35.48;97600.50;5010299;28;19921;-81
2023/03/03 11:49:56;;;;;;;;;;;;;;;14.36;35.55;97609.94;4978837;28;19961;-81
2023/03/03 11:52:41;;;;;;;;;;;;;;;15.15;34.05;97602.72;4972232;28;19921;-81
2023/03/03 11:55:09;;;;;;;;;;;;;;;15.59;33.51;97600.56;4989748;28;19917;-81
2023/03/03 11:57:35;;;;;;;;;;;;;;;16.15;32.66;97595.16;4971813;28;19925;-81
2023/03/03 12:00:08;;;;;;;;;;;;;;;16.16;32.59;97593.31;5007332;28;19923;-81
2023/03/03 12:02:44;;;;;;;;;;;;;;;16.22;32.16;97587.75;5010410;28;20071;-80
2023/03/03 12:05:16;;;;;;;;;;;;;;;16.46;31.59;97595.00;4968044;28;20369;-80
2023/03/03 12:07:56;;;;;;;;;;;;;;;16.26;31.28;97594.06;4976248;28;19956;-79
2023/03/03 12:10:34;;;;;;;;;;;;;;;15.27;32.44;97593.81;5008614;28;19988;-79
2023/03/03 12:13:10;;;;;;;;;;;;;;;15.84;32.22;97591.88;4988629;28;19917;-80
2023/03/03 12:15:35;;;;;;;;;;;;;;;16.31;31.76;97589.81;4974100;28;19921;-80
2023/03/03 12:18:00;;;;;;;;;;;;;;;15.33;32.48;97590.88;5008309;28;19930;-79
2023/03/03 12:20:34;;;;;;;;;;;;;;;16.14;31.94;97584.91;4992474;28;19921;-80
2023/03/03 12:23:04;;;;;;;;;;;;;;;15.47;32.50;97587.72;5008233;28;19944;-79
2023/03/03 12:25:29;;;;;;;;;;;;;;;16.12;31.76;97584.41;5008357;28;20684;-79
2023/03/03 12:28:05;;;;;;;;;;;;;;;16.67;30.94;97579.88;5005956;28;19924;-80
2023/03/03 12:30:33;;;;;;;;;;;;;;;15.89;31.98;97583.97;4973481;28;20376;-81
2023/03/03 12:32:59;;;;;;;;;;;;;;;15.72;32.11;97589.50;4984323;28;19917;-81
2023/03/03 12:35:39;;;;;;;;;;;;;;;14.76;33.43;97592.72;4992257;28;20407;-81
2023/03/03 12:38:20;;;;;;;;;;;;;;;14.27;33.88;97592.34;4992221;28;20632;-79
2023/03/03 12:40:51;;;;;;;;;;;;;;;14.21;34.63;97583.69;4992229;28;20292;-80
2023/03/03 12:43:18;;;;;;;;;;;;;;;14.14;34.92;97583.94;4987945;28;19913;-81
2023/03/03 12:46:02;;;;;;;;;;;;;;;13.82;35.27;97579.59;5000060;28;19945;-80
2023/03/03 12:48:53;;;;;;;;;;;;;;;13.86;35.39;97578.06;4985200;28;20036;-80
2023/03/03 12:51:42;;;;;;;;;;;;;;;13.81;35.89;97579.84;4980105;28;19913;-80
2023/03/03 12:54:21;;;;;;;;;;;;;;;12.92;37.52;97580.34;4974443;28;20346;-78
2023/03/03 12:56:53;;;;;;;;;;;;;;;12.95;37.29;97580.88;5008326;28;19917;-79
2023/03/03 12:59:24;;;;;;;;;;;;;;;12.91;37.49;97577.97;5007517;28;19913;-80
2023/03/03 13:01:58;;;;;;;;;;;;;;;12.02;39.09;97581.78;4990083;28;19917;-81
2023/03/03 13:04:24;;;;;;;;;;;;;;;11.84;39.40;97581.03;5007236;28;20369;-80